Time;durP1;ratioP1;P1;durP2;ratioP2;P2;SDS_P1;SDS_P2;PMS_P1;PMS_P2;Temp;Humidity;BMP_temperature;BMP_pressure;BME280_temperature;BME280_humidity;BME280_pressure;Samples;Min_cycle;Max_cycle;Signal;HPM_P1;HPM_P2
2021/07/17 00:01:37;;;;;;;1.53;1.43;;;18.10;99.90;;;;;;5037506;28;20188;-86
2021/07/17 00:04:03;;;;;;;3.00;2.70;;;18.10;99.90;;;;;;5055463;28;20185;-86
2021/07/17 00:06:28;;;;;;;1.83;1.57;;;18.10;99.90;;;;;;5037553;28;20296;-86
2021/07/17 00:09:16;;;;;;;2.33;1.60;;;18.20;99.90;;;;;;5037021;28;20273;-86
2021/07/17 00:11:42;;;;;;;2.00;1.83;;;18.40;99.90;;;;;;5022468;28;20187;-86
2021/07/17 00:14:07;;;;;;;1.73;1.50;;;18.40;99.90;;;;;;5049206;28;20544;-87
2021/07/17 00:16:34;;;;;;;1.03;1.03;;;18.40;99.90;;;;;;5034535;28;20214;-86
2021/07/17 00:19:00;;;;;;;0.93;0.90;;;18.60;99.90;;;;;;5030385;28;20249;-86
2021/07/17 00:21:25;;;;;;;1.70;1.53;;;18.60;99.90;;;;;;5055533;28;20253;-86
2021/07/17 00:23:52;;;;;;;2.70;1.57;;;18.60;99.90;;;;;;5037047;28;20200;-86
2021/07/17 00:26:17;;;;;;;2.93;1.63;;;18.40;99.90;;;;;;5037494;28;20201;-86
2021/07/17 00:28:43;;;;;;;2.27;1.77;;;18.50;99.90;;;;;;5036617;28;20207;-86
2021/07/17 00:31:09;;;;;;;2.63;1.17;;;18.50;99.90;;;;;;5037250;28;20560;-86
2021/07/17 00:33:34;;;;;;;3.97;2.67;;;18.50;99.90;;;;;;5058389;28;20732;-86
2021/07/17 00:36:00;;;;;;;3.47;1.50;;;18.30;99.90;;;;;;5055511;28;20777;-87
2021/07/17 00:38:25;;;;;;;1.67;1.53;;;18.30;99.90;;;;;;5036377;28;20599;-86
2021/07/17 00:40:51;;;;;;;2.17;2.00;;;18.30;99.90;;;;;;5037221;28;20707;-87
2021/07/17 00:43:17;;;;;;;2.53;2.03;;;18.20;99.90;;;;;;5055048;28;20228;-86
2021/07/17 00:45:42;;;;;;;1.63;1.53;;;18.20;99.90;;;;;;5048749;28;20202;-85
2021/07/17 00:48:08;;;;;;;1.50;1.40;;;18.10;99.90;;;;;;5033208;28;20291;-86
2021/07/17 00:50:34;;;;;;;4.07;2.23;;;18.10;99.90;;;;;;5036704;28;20607;-86
2021/07/17 00:52:59;;;;;;;2.77;2.53;;;18.10;99.90;;;;;;5054469;28;20197;-86
2021/07/17 00:55:27;;;;;;;3.17;2.83;;;18.10;99.90;;;;;;5054369;28;20191;-86
2021/07/17 00:57:53;;;;;;;3.03;1.73;;;18.20;99.90;;;;;;5035948;28;20189;-86
2021/07/17 01:00:22;;;;;;;1.50;1.20;;;18.10;99.90;;;;;;5053869;28;20603;-86
2021/07/17 01:02:51;;;;;;;2.00;1.33;;;18.20;99.90;;;;;;5054622;28;20206;-86
2021/07/17 01:05:17;;;;;;;0.87;0.87;;;18.20;99.90;;;;;;5036229;28;20181;-86
2021/07/17 01:07:45;;;;;;;0.80;0.80;;;18.10;99.90;;;;;;5035753;28;20189;-87
2021/07/17 01:10:12;;;;;;;1.83;1.30;;;18.20;99.90;;;;;;5020395;28;20186;-86
2021/07/17 01:12:37;;;;;;;2.13;1.67;;;18.30;99.90;;;;;;5030572;28;20191;-86
2021/07/17 01:15:04;;;;;;;1.63;1.10;;;18.20;99.90;;;;;;5036365;28;20201;-86
2021/07/17 01:17:30;;;;;;;5.30;1.50;;;18.30;99.90;;;;;;5035740;28;20224;-86
2021/07/17 01:19:55;;;;;;;1.00;1.00;;;18.20;99.90;;;;;;5028555;28;20676;-87
2021/07/17 01:22:21;;;;;;;1.23;1.17;;;18.30;99.90;;;;;;5035624;28;20211;-86
2021/07/17 01:25:41;;;;;;;1.40;1.27;;;18.30;99.90;;;;;;5036273;28;20805;-86
2021/07/17 01:28:07;;;;;;;1.67;1.43;;;18.20;99.90;;;;;;5049147;28;20212;-86
2021/07/17 01:30:36;;;;;;;1.47;1.40;;;18.30;99.90;;;;;;5050632;28;20661;-86
2021/07/17 01:33:03;;;;;;;1.87;1.67;;;18.30;99.90;;;;;;5025027;28;20244;-86
2021/07/17 01:35:28;;;;;;;2.43;1.87;;;18.30;99.90;;;;;;5054250;28;20213;-86
2021/07/17 01:37:54;;;;;;;1.27;1.13;;;18.30;99.90;;;;;;5035085;28;20335;-86
2021/07/17 01:40:21;;;;;;;2.77;1.60;;;18.40;99.90;;;;;;5047097;28;20193;-86
2021/07/17 01:42:49;;;;;;;4.23;1.10;;;18.30;99.90;;;;;;5032275;28;20296;-86
2021/07/17 01:45:41;;;;;;;2.70;1.53;;;18.40;99.90;;;;;;5035687;28;20182;-88
2021/07/17 01:48:08;;;;;;;2.53;1.50;;;18.40;99.90;;;;;;5027358;28;20266;-86
2021/07/17 01:50:36;;;;;;;4.43;1.83;;;18.30;99.90;;;;;;5035880;28;20186;-86
2021/07/17 01:53:02;;;;;;;1.00;0.90;;;18.20;99.90;;;;;;5047823;28;20316;-86
2021/07/17 01:55:28;;;;;;;3.13;1.23;;;18.30;99.90;;;;;;5033298;28;20209;-87
2021/07/17 01:57:54;;;;;;;1.40;1.30;;;18.20;99.90;;;;;;5035306;28;20189;-86
2021/07/17 02:00:21;;;;;;;1.33;1.27;;;18.20;99.90;;;;;;5053078;28;20538;-87
2021/07/17 02:02:48;;;;;;;1.67;1.57;;;18.10;99.90;;;;;;5031694;28;20212;-87
2021/07/17 02:05:14;;;;;;;3.53;1.83;;;18.10;99.90;;;;;;5036060;28;20181;-86
2021/07/17 02:07:40;;;;;;;2.03;1.33;;;18.30;99.90;;;;;;5031762;28;20206;-87
2021/07/17 02:10:11;;;;;;;1.87;1.30;;;18.20;99.90;;;;;;5035244;28;20641;-87
2021/07/17 02:13:05;;;;;;;1.93;1.33;;;18.20;99.90;;;;;;5035528;28;20298;-86
2021/07/17 02:15:34;;;;;;;1.80;1.50;;;18.10;99.90;;;;;;5047289;28;20221;-87
2021/07/17 02:18:01;;;;;;;5.27;1.17;;;18.20;99.90;;;;;;5035902;28;20607;-86
2021/07/17 02:20:27;;;;;;;2.80;1.43;;;18.20;99.90;;;;;;5035521;28;20657;-90
2021/07/17 02:22:53;;;;;;;1.73;1.50;;;18.10;99.90;;;;;;5035063;28;20208;-87
2021/07/17 02:25:19;;;;;;;2.33;1.00;;;18.10;99.90;;;;;;5051847;28;20532;-86
2021/07/17 02:27:45;;;;;;;1.70;0.87;;;18.10;99.90;;;;;;5034765;28;20213;-86
2021/07/17 02:30:11;;;;;;;2.07;1.37;;;18.00;99.90;;;;;;5051979;28;20181;-87
2021/07/17 02:32:36;;;;;;;3.60;1.00;;;18.10;99.90;;;;;;5051671;28;20177;-87
2021/07/17 02:35:03;;;;;;;3.03;1.17;;;18.10;99.90;;;;;;5035027;28;20661;-87
2021/07/17 02:37:29;;;;;;;2.00;1.60;;;18.10;99.90;;;;;;5051801;28;20212;-87
2021/07/17 02:39:55;;;;;;;9.43;3.03;;;18.10;99.90;;;;;;5035199;28;20254;-87
2021/07/17 02:42:20;;;;;;;2.73;2.30;;;18.10;99.90;;;;;;5034808;28;20209;-87
2021/07/17 02:44:46;;;;;;;3.87;0.73;;;18.00;99.90;;;;;;5047570;28;20182;-89
2021/07/17 02:47:12;;;;;;;2.33;1.20;;;18.00;99.90;;;;;;5045951;28;20197;-86
2021/07/17 02:49:38;;;;;;;3.03;1.37;;;18.10;99.90;;;;;;5051127;28;20197;-87
2021/07/17 02:52:04;;;;;;;1.27;0.83;;;18.00;99.90;;;;;;5029525;28;20259;-87
2021/07/17 02:54:29;;;;;;;1.87;1.43;;;18.10;99.90;;;;;;5036614;28;20660;-87
2021/07/17 02:56:55;;;;;;;1.63;1.47;;;18.10;99.90;;;;;;5050024;28;20221;-86
2021/07/17 02:59:21;;;;;;;1.20;1.17;;;18.20;99.90;;;;;;5032305;28;20177;-86
2021/07/17 03:01:46;;;;;;;4.00;1.37;;;18.20;99.90;;;;;;5031530;28;20186;-88
2021/07/17 03:04:12;;;;;;;2.00;1.73;;;18.20;99.90;;;;;;5051723;28;20250;-87
2021/07/17 03:06:37;;;;;;;0.67;0.67;;;18.20;99.90;;;;;;5030070;28;20606;-88
2021/07/17 03:09:48;;;;;;;0.83;0.83;;;18.20;99.90;;;;;;5030642;28;20188;-87
2021/07/17 03:12:13;;;;;;;1.47;1.37;;;18.10;99.90;;;;;;5032574;28;20193;-86
2021/07/17 03:14:39;;;;;;;1.87;0.83;;;18.10;99.90;;;;;;5030957;28;20193;-86
2021/07/17 03:17:05;;;;;;;0.93;0.93;;;18.10;99.90;;;;;;5050508;28;20197;-86
2021/07/17 03:19:31;;;;;;;0.77;0.77;;;18.10;99.90;;;;;;5051447;28;20181;-86
2021/07/17 03:21:56;;;;;;;1.63;1.30;;;18.10;99.90;;;;;;5027078;28;20214;-87
2021/07/17 03:24:22;;;;;;;1.93;1.83;;;18.10;99.90;;;;;;5030893;28;20184;-87
2021/07/17 03:26:47;;;;;;;1.10;1.10;;;18.10;99.90;;;;;;5033839;28;20202;-86
2021/07/17 03:29:13;;;;;;;3.20;1.53;;;18.10;99.90;;;;;;5055757;28;20269;-86
2021/07/17 03:31:39;;;;;;;4.47;2.17;;;18.10;99.90;;;;;;5036342;28;20186;-90
2021/07/17 03:34:05;;;;;;;0.80;0.80;;;18.10;99.90;;;;;;5037841;28;20182;-86
2021/07/17 03:36:31;;;;;;;0.90;0.90;;;18.10;99.90;;;;;;5036583;28;20212;-87
2021/07/17 03:38:57;;;;;;;1.17;1.00;;;18.20;99.90;;;;;;5055612;28;20184;-86
2021/07/17 03:41:38;;;;;;;1.17;1.10;;;18.10;99.90;;;;;;5054315;28;20178;-86
2021/07/17 03:44:06;;;;;;;1.37;1.27;;;18.20;99.90;;;;;;5035271;28;20194;-86
2021/07/17 03:46:32;;;;;;;2.60;2.10;;;18.30;99.90;;;;;;5034610;28;20255;-90
2021/07/17 03:48:58;;;;;;;1.63;1.37;;;18.40;99.90;;;;;;5035781;28;20181;-87
2021/07/17 03:51:23;;;;;;;0.80;0.77;;;18.30;99.90;;;;;;5038033;28;20189;-87
2021/07/17 03:53:49;;;;;;;1.07;1.00;;;18.30;99.90;;;;;;5055160;28;20190;-86
2021/07/17 03:56:15;;;;;;;1.10;0.73;;;18.40;99.90;;;;;;5037925;28;20209;-86
2021/07/17 03:58:40;;;;;;;1.60;1.40;;;18.30;99.90;;;;;;5036276;28;20271;-86
2021/07/17 04:01:06;;;;;;;0.70;0.70;;;18.40;99.90;;;;;;5036773;28;20329;-86
2021/07/17 04:03:33;;;;;;;1.97;1.47;;;18.40;99.90;;;;;;5032267;28;20205;-86
2021/07/17 04:05:59;;;;;;;1.20;0.93;;;18.50;99.90;;;;;;5037213;28;20554;-86
2021/07/17 04:08:25;;;;;;;0.83;0.83;;;18.60;99.90;;;;;;5036367;28;20274;-87
2021/07/17 04:10:50;;;;;;;1.80;1.20;;;18.70;99.90;;;;;;5037667;28;20232;-87
2021/07/17 04:13:16;;;;;;;1.67;1.27;;;18.80;99.90;;;;;;5034816;28;20182;-89
2021/07/17 04:15:42;;;;;;;1.17;0.90;;;18.80;99.90;;;;;;5052526;28;20252;-87
2021/07/17 04:18:08;;;;;;;2.97;2.03;;;18.90;99.90;;;;;;5034544;28;20191;-86
2021/07/17 04:20:34;;;;;;;0.90;0.77;;;18.70;99.90;;;;;;5037226;28;20235;-86
2021/07/17 04:23:00;;;;;;;1.33;0.93;;;18.60;99.90;;;;;;5036758;28;20259;-86
2021/07/17 04:25:26;;;;;;;4.87;1.17;;;18.60;99.90;;;;;;5037266;28;20605;-86
2021/07/17 04:27:51;;;;;;;0.80;0.80;;;18.60;99.90;;;;;;5035174;28;20178;-86
2021/07/17 04:30:17;;;;;;;1.73;1.47;;;18.60;99.90;;;;;;5054864;28;20180;-86
2021/07/17 04:32:43;;;;;;;0.90;0.80;;;18.60;99.90;;;;;;5054731;28;20186;-87
2021/07/17 04:35:09;;;;;;;4.63;1.30;;;18.50;99.90;;;;;;5053976;28;20222;-87
2021/07/17 04:37:35;;;;;;;1.20;1.10;;;18.60;99.90;;;;;;5036509;28;20213;-87
2021/07/17 04:40:01;;;;;;;1.23;1.03;;;18.70;99.90;;;;;;5036144;28;20220;-86
2021/07/17 04:42:27;;;;;;;1.30;1.20;;;18.80;99.90;;;;;;5053618;28;20259;-86
2021/07/17 04:44:53;;;;;;;1.50;0.73;;;18.80;99.90;;;;;;5032815;28;20183;-87
2021/07/17 04:47:19;;;;;;;0.80;0.80;;;18.60;99.90;;;;;;5035960;28;20708;-87
2021/07/17 04:49:45;;;;;;;1.23;1.10;;;18.70;99.90;;;;;;5036358;28;20213;-86
2021/07/17 04:52:11;;;;;;;0.97;0.90;;;18.70;99.90;;;;;;5035715;28;20683;-88
2021/07/17 04:54:36;;;;;;;1.00;0.90;;;18.80;99.90;;;;;;5029336;28;20559;-86
2021/07/17 04:57:02;;;;;;;1.23;1.10;;;19.00;99.90;;;;;;5030375;28;20288;-86
2021/07/17 04:59:28;;;;;;;1.57;1.13;;;18.90;99.90;;;;;;5035255;28;20307;-86
2021/07/17 05:01:53;;;;;;;1.03;0.93;;;18.90;99.90;;;;;;5036065;28;20181;-86
2021/07/17 05:04:19;;;;;;;3.90;0.80;;;18.90;99.90;;;;;;5036370;28;20196;-86
2021/07/17 05:06:45;;;;;;;1.83;1.70;;;19.00;99.90;;;;;;5030731;28;20216;-88
2021/07/17 05:09:10;;;;;;;0.80;0.80;;;19.10;99.90;;;;;;5054070;28;20180;-86
2021/07/17 05:11:36;;;;;;;0.70;0.70;;;19.10;99.90;;;;;;5036189;28;20693;-86
2021/07/17 05:14:02;;;;;;;0.60;0.60;;;19.10;99.90;;;;;;5035823;28;20196;-86
2021/07/17 05:16:28;;;;;;;1.90;1.23;;;19.10;99.90;;;;;;5034386;28;20308;-86
2021/07/17 05:18:55;;;;;;;0.93;0.83;;;19.00;99.90;;;;;;5052660;28;20805;-86
2021/07/17 05:21:20;;;;;;;0.37;0.30;;;19.10;99.90;;;;;;5036259;28;20189;-86
2021/07/17 05:23:47;;;;;;;0.93;0.93;;;19.20;99.90;;;;;;5052090;28;20212;-87
2021/07/17 05:26:13;;;;;;;0.63;0.57;;;19.10;99.90;;;;;;5050104;28;20198;-86
2021/07/17 05:28:38;;;;;;;1.80;1.20;;;19.00;99.90;;;;;;5034654;28;20184;-86
2021/07/17 05:31:04;;;;;;;0.40;0.40;;;18.90;99.90;;;;;;5030316;28;20273;-86
2021/07/17 05:33:29;;;;;;;0.57;0.57;;;18.90;99.90;;;;;;5036058;28;20198;-87
2021/07/17 05:35:55;;;;;;;1.43;1.10;;;18.80;99.90;;;;;;5033741;28;20197;-86
2021/07/17 05:38:21;;;;;;;1.10;0.80;;;18.90;99.90;;;;;;5034983;28;20539;-86
2021/07/17 05:40:46;;;;;;;0.80;0.80;;;18.90;99.90;;;;;;5050061;28;20646;-86
2021/07/17 05:43:12;;;;;;;0.70;0.70;;;19.00;99.90;;;;;;5053340;28;20218;-87
2021/07/17 05:45:38;;;;;;;1.13;0.37;;;19.00;99.90;;;;;;5053057;28;20202;-87
2021/07/17 05:48:04;;;;;;;0.53;0.53;;;19.20;99.90;;;;;;5034075;28;20185;-86
2021/07/17 05:50:30;;;;;;;1.10;1.00;;;19.10;99.90;;;;;;5033148;28;20194;-88
2021/07/17 05:52:56;;;;;;;0.60;0.60;;;19.10;99.90;;;;;;5035668;28;20204;-87
2021/07/17 05:55:22;;;;;;;1.03;0.53;;;19.20;99.90;;;;;;5051414;28;20268;-86
2021/07/17 05:57:47;;;;;;;1.10;1.00;;;18.80;99.90;;;;;;5034125;28;20276;-86
2021/07/17 06:00:19;;;;;;;1.10;0.80;;;18.70;99.90;;;;;;5034837;28;20274;-86
2021/07/17 06:02:45;;;;;;;1.77;1.00;;;18.80;99.90;;;;;;5051831;28;20595;-87
2021/07/17 06:05:11;;;;;;;0.13;0.13;;;18.80;99.90;;;;;;5035370;28;20646;-86
2021/07/17 06:07:37;;;;;;;0.43;0.43;;;18.90;99.90;;;;;;5032386;28;20190;-87
2021/07/17 06:10:03;;;;;;;0.53;0.53;;;18.80;99.90;;;;;;5032071;28;20673;-90
2021/07/17 06:12:29;;;;;;;3.27;0.83;;;18.80;99.90;;;;;;5033298;28;20196;-87
2021/07/17 06:14:55;;;;;;;3.27;1.30;;;19.20;99.90;;;;;;5030258;28;20716;-86
2021/07/17 06:17:21;;;;;;;1.40;0.50;;;19.30;99.90;;;;;;5034089;28;20244;-85
2021/07/17 06:19:48;;;;;;;1.30;0.73;;;19.20;99.90;;;;;;5052316;28;20184;-85
2021/07/17 06:22:13;;;;;;;1.17;0.97;;;19.50;99.90;;;;;;5040461;28;20264;-87
2021/07/17 06:24:39;;;;;;;1.07;0.70;;;19.30;99.90;;;;;;5028905;28;20651;-87
2021/07/17 06:27:06;;;;;;;0.83;0.80;;;19.50;99.90;;;;;;5046260;28;20644;-84
2021/07/17 06:29:33;;;;;;;0.70;0.70;;;19.60;99.90;;;;;;5044798;28;20185;-85
2021/07/17 06:31:58;;;;;;;1.80;1.60;;;19.80;99.90;;;;;;5033398;28;20194;-85
2021/07/17 06:34:24;;;;;;;0.80;0.47;;;20.00;99.90;;;;;;5032992;28;20188;-86
2021/07/17 06:36:50;;;;;;;0.70;0.70;;;20.10;99.90;;;;;;5049834;28;20205;-86
2021/07/17 06:39:16;;;;;;;0.77;0.50;;;20.10;99.90;;;;;;5028633;28;20196;-86
2021/07/17 06:41:42;;;;;;;0.47;0.47;;;20.20;99.90;;;;;;5049592;28;20189;-85
2021/07/17 06:44:07;;;;;;;1.70;1.30;;;20.10;99.90;;;;;;5027969;28;20240;-86
2021/07/17 06:46:33;;;;;;;3.10;0.50;;;20.20;99.90;;;;;;5033098;28;20230;-85
2021/07/17 06:48:59;;;;;;;0.60;0.60;;;19.80;99.90;;;;;;5024958;28;20665;-85
2021/07/17 06:51:24;;;;;;;0.63;0.57;;;20.00;99.90;;;;;;5039231;28;20185;-85
2021/07/17 06:53:50;;;;;;;1.20;1.10;;;20.10;99.90;;;;;;5033032;28;20609;-85
2021/07/17 06:56:16;;;;;;;1.13;0.93;;;20.30;99.90;;;;;;5031031;28;20202;-83
2021/07/17 06:58:42;;;;;;;6.23;0.70;;;20.20;99.90;;;;;;5032844;28;20186;-85
2021/07/17 07:01:08;;;;;;;1.67;0.77;;;20.40;99.90;;;;;;5031610;28;20188;-86
2021/07/17 07:03:33;;;;;;;0.73;0.53;;;20.50;99.90;;;;;;5049908;28;20209;-86
2021/07/17 07:05:59;;;;;;;0.50;0.50;;;20.70;99.90;;;;;;5025681;28;20367;-86
2021/07/17 07:08:25;;;;;;;0.93;0.40;;;20.80;99.90;;;;;;5032270;28;20197;-85
2021/07/17 07:10:51;;;;;;;0.90;0.90;;;20.80;99.90;;;;;;5021493;28;20273;-85
2021/07/17 07:13:17;;;;;;;0.50;0.50;;;20.50;99.90;;;;;;5050262;28;20562;-85
2021/07/17 07:15:43;;;;;;;1.37;0.63;;;20.20;99.90;;;;;;5048391;28;20223;-86
2021/07/17 07:18:12;;;;;;;0.57;0.53;;;20.10;99.90;;;;;;5028243;28;20280;-87
2021/07/17 07:20:37;;;;;;;1.43;1.33;;;19.90;99.90;;;;;;5041881;28;20189;-86
2021/07/17 07:23:03;;;;;;;0.43;0.43;;;19.80;99.90;;;;;;5048961;28;20276;-85
2021/07/17 07:25:29;;;;;;;0.40;0.40;;;19.70;99.90;;;;;;5044576;28;20270;-84
2021/07/17 07:27:55;;;;;;;1.33;0.77;;;19.80;99.90;;;;;;5020885;28;20179;-85
2021/07/17 07:30:21;;;;;;;1.03;0.80;;;20.10;99.90;;;;;;5044801;28;20173;-86
2021/07/17 07:32:50;;;;;;;0.77;0.73;;;19.80;99.90;;;;;;5032708;28;20193;-85
2021/07/17 07:35:20;;;;;;;1.37;1.00;;;20.10;99.90;;;;;;5033901;28;20185;-86
2021/07/17 07:37:47;;;;;;;0.70;0.70;;;20.20;99.90;;;;;;5050376;28;20259;-86
2021/07/17 07:40:15;;;;;;;1.03;0.93;;;20.20;99.90;;;;;;5049164;28;20182;-86
2021/07/17 07:42:41;;;;;;;0.60;0.60;;;20.30;99.90;;;;;;5033032;28;20213;-85
2021/07/17 07:45:07;;;;;;;0.77;0.77;;;20.40;99.90;;;;;;5029370;28;20546;-86
2021/07/17 07:47:33;;;;;;;0.77;0.60;;;20.60;99.90;;;;;;5049916;28;20586;-86
2021/07/17 07:49:58;;;;;;;0.50;0.50;;;20.90;99.90;;;;;;5049162;28;20190;-85
2021/07/17 07:52:24;;;;;;;0.83;0.83;;;20.70;99.90;;;;;;5028593;28;20188;-86
2021/07/17 07:54:51;;;;;;;0.50;0.50;;;20.90;99.90;;;;;;5049393;28;20217;-86
2021/07/17 07:57:17;;;;;;;1.17;1.17;;;21.10;99.90;;;;;;5048829;28;20202;-85
2021/07/17 07:59:44;;;;;;;1.47;0.90;;;21.40;99.90;;;;;;5031575;28;20645;-84
2021/07/17 08:02:10;;;;;;;0.53;0.53;;;21.60;99.90;;;;;;5026877;28;20249;-84
2021/07/17 08:04:36;;;;;;;1.00;0.70;;;21.80;99.90;;;;;;5027692;28;20179;-85
2021/07/17 08:07:01;;;;;;;0.70;0.70;;;21.60;99.90;;;;;;5031746;28;20204;-85
2021/07/17 08:09:27;;;;;;;1.47;0.87;;;21.80;99.90;;;;;;5032083;28;20231;-84
2021/07/17 08:11:53;;;;;;;1.97;1.07;;;21.90;99.90;;;;;;5033372;28;20174;-85
2021/07/17 08:14:18;;;;;;;0.90;0.87;;;22.20;99.90;;;;;;5049635;28;20260;-85
2021/07/17 08:16:44;;;;;;;0.73;0.63;;;22.40;99.90;;;;;;5035298;28;20701;-85
2021/07/17 08:19:10;;;;;;;1.33;1.23;;;22.20;99.90;;;;;;5052517;28;20178;-84
2021/07/17 08:21:36;;;;;;;1.17;1.03;;;22.30;99.90;;;;;;5053570;28;20178;-84
2021/07/17 08:24:03;;;;;;;2.43;1.90;;;22.30;99.90;;;;;;5052491;28;20700;-84
2021/07/17 08:26:29;;;;;;;0.50;0.50;;;22.20;99.90;;;;;;5031403;28;20198;-85
2021/07/17 08:28:55;;;;;;;1.83;1.27;;;22.30;99.90;;;;;;5053271;28;20186;-85
2021/07/17 08:31:21;;;;;;;2.67;1.50;;;22.30;99.90;;;;;;5032600;28;20177;-85
2021/07/17 08:33:47;;;;;;;1.07;0.97;;;21.90;99.90;;;;;;5049177;28;20193;-85
2021/07/17 08:36:12;;;;;;;3.17;1.13;;;21.50;99.90;;;;;;5033853;28;20205;-84
2021/07/17 08:38:38;;;;;;;1.70;1.33;;;21.60;99.90;;;;;;5034080;28;20180;-85
2021/07/17 08:41:10;;;;;;;5.27;1.23;;;21.80;99.90;;;;;;5036454;28;20240;-85
2021/07/17 08:43:36;;;;;;;2.83;1.47;;;21.90;99.90;;;;;;5035357;28;20209;-85
2021/07/17 08:46:02;;;;;;;1.47;1.37;;;21.60;99.90;;;;;;5031377;28;20229;-85
2021/07/17 08:48:29;;;;;;;1.53;1.27;;;22.00;99.90;;;;;;5035166;28;20269;-85
2021/07/17 08:50:55;;;;;;;3.20;1.30;;;22.40;99.90;;;;;;5034970;28;21417;-84
2021/07/17 08:53:22;;;;;;;0.97;0.90;;;22.70;99.90;;;;;;5038431;28;20186;-85
2021/07/17 08:55:48;;;;;;;1.53;1.07;;;22.90;99.90;;;;;;5027035;28;20749;-84
2021/07/17 08:58:13;;;;;;;1.17;1.07;;;23.00;99.90;;;;;;5031545;28;20277;-85
2021/07/17 09:00:42;;;;;;;4.22;2.13;;;23.30;99.90;;;;;;5031856;28;20441;-84
2021/07/17 09:03:12;;;;;;;0.73;0.73;;;23.60;99.90;;;;;;5034942;28;20208;-86
2021/07/17 09:05:45;;;;;;;3.93;1.43;;;23.50;99.90;;;;;;5034981;28;20198;-86
2021/07/17 09:08:12;;;;;;;1.37;1.27;;;23.40;99.90;;;;;;5026876;28;20673;-85
2021/07/17 09:10:41;;;;;;;3.33;1.63;;;23.30;99.90;;;;;;5034402;28;20178;-86
2021/07/17 09:13:27;;;;;;;2.30;1.67;;;22.70;99.90;;;;;;5033820;28;20187;-86
2021/07/17 09:16:08;;;;;;;3.93;2.90;;;22.60;99.90;;;;;;5056507;28;20221;-86
2021/07/17 09:18:49;;;;;;;3.87;1.70;;;22.50;99.90;;;;;;5046806;28;20188;-86
2021/07/17 09:21:24;;;;;;;2.63;1.27;;;22.70;99.90;;;;;;5033529;28;20185;-86
2021/07/17 09:23:59;;;;;;;1.70;1.60;;;23.10;99.90;;;;;;5052087;28;20209;-86
2021/07/17 09:26:33;;;;;;;2.23;1.70;;;22.60;99.90;;;;;;5036389;28;20753;-88
2021/07/17 09:29:42;;;;;;;1.00;0.90;;;23.20;99.90;;;;;;5044909;28;20170;-88
2021/07/17 09:32:15;;;;;;;1.70;1.60;;;23.50;99.90;;;;;;5035554;28;20184;-87
2021/07/17 09:34:40;;;;;;;0.97;0.97;;;23.40;99.90;;;;;;5037504;28;20179;-88
2021/07/17 09:37:11;;;;;;;0.93;0.93;;;23.30;99.90;;;;;;5035754;28;20197;-88
2021/07/17 09:39:45;;;;;;;2.90;1.30;;;23.40;99.90;;;;;;5035416;28;20272;-87
2021/07/17 09:42:17;;;;;;;2.60;1.37;;;23.70;99.90;;;;;;5035898;28;20636;-88
2021/07/17 09:44:42;;;;;;;1.33;1.23;;;24.10;99.90;;;;;;5029996;28;20193;-87
2021/07/17 09:47:23;;;;;;;3.47;1.57;;;24.60;99.90;;;;;;5050775;28;20198;-88
2021/07/17 09:49:50;;;;;;;3.57;1.80;;;24.80;99.90;;;;;;5033551;28;20213;-88
2021/07/17 09:52:20;;;;;;;1.73;1.30;;;24.60;99.90;;;;;;5030831;28;20189;-88
2021/07/17 09:55:06;;;;;;;2.73;1.33;;;24.90;99.90;;;;;;5032874;28;20533;-89
2021/07/17 09:57:33;;;;;;;1.57;1.47;;;24.90;99.90;;;;;;5022747;28;20206;-89
2021/07/17 10:00:14;;;;;;;6.80;2.00;;;24.50;99.90;;;;;;5023348;28;20174;-89
2021/07/17 10:02:40;;;;;;;1.83;1.73;;;24.40;99.90;;;;;;5035485;28;20424;-89
2021/07/17 10:05:06;;;;;;;1.30;1.20;;;24.40;99.90;;;;;;5052714;28;20178;-89
2021/07/17 10:07:32;;;;;;;2.50;1.20;;;24.00;99.90;;;;;;5034199;28;20681;-89
2021/07/17 10:09:59;;;;;;;2.43;1.47;;;24.30;99.90;;;;;;5034993;28;20296;-89
2021/07/17 10:12:35;;;;;;;1.63;1.53;;;24.40;99.90;;;;;;5034870;28;20315;-88
2021/07/17 10:15:05;;;;;;;1.43;1.33;;;24.70;99.90;;;;;;5035072;28;20193;-89
2021/07/17 10:17:35;;;;;;;1.70;1.10;;;24.60;99.90;;;;;;5034756;28;20232;-90
2021/07/17 10:20:03;;;;;;;0.80;0.80;;;24.30;99.90;;;;;;5034141;28;20580;-88
2021/07/17 10:22:29;;;;;;;2.40;1.47;;;24.70;99.90;;;;;;5051850;28;20209;-89
2021/07/17 10:25:13;;;;;;;1.10;1.07;;;25.10;99.90;;;;;;5052391;28;20232;-91
2021/07/17 10:27:39;;;;;;;1.70;1.43;;;25.30;99.90;;;;;;5051908;28;20182;-89
2021/07/17 10:30:07;;;;;;;4.17;0.77;;;25.20;99.90;;;;;;5034861;28;20186;-88
2021/07/17 10:32:33;;;;;;;1.97;1.77;;;25.00;99.90;;;;;;5052460;28;20189;-89
2021/07/17 10:34:59;;;;;;;1.03;0.90;;;24.80;99.90;;;;;;5051824;28;20256;-87
2021/07/17 10:37:33;;;;;;;1.53;1.43;;;24.80;99.90;;;;;;5045717;28;20205;-88
2021/07/17 10:40:39;;;;;;;3.10;1.67;;;24.80;99.90;;;;;;5033989;28;20197;-88
2021/07/17 10:43:19;;;;;;;1.60;1.50;;;25.00;99.90;;;;;;5051432;28;20750;-89
2021/07/17 10:45:45;;;;;;;2.00;1.40;;;25.20;99.90;;;;;;5035174;28;20202;-88
2021/07/17 10:48:38;;;;;;;4.33;1.20;;;24.30;99.90;;;;;;5034504;28;20181;-89
2021/07/17 10:51:23;;;;;;;1.43;1.30;;;25.00;99.90;;;;;;5051981;28;20182;-88
2021/07/17 10:53:53;;;;;;;5.60;1.57;;;25.60;99.90;;;;;;5027861;28;20194;-89
2021/07/17 10:56:30;;;;;;;1.77;1.30;;;25.50;99.90;;;;;;5020069;28;20201;-89
2021/07/17 10:59:10;;;;;;;1.23;1.13;;;25.60;99.90;;;;;;5028465;28;20192;-88
2021/07/17 11:02:07;;;;;;;0.87;0.80;;;25.70;99.90;;;;;;5050419;28;20200;-88
2021/07/17 11:04:38;;;;;;;0.70;0.70;;;25.10;99.90;;;;;;5023565;28;20204;-88
2021/07/17 11:07:16;;;;;;;1.23;1.07;;;25.70;99.90;;;;;;5039049;28;20289;-88
2021/07/17 11:09:54;;;;;;;1.30;1.20;;;25.70;99.90;;;;;;5051346;28;20550;-88
2021/07/17 11:12:28;;;;;;;1.00;0.97;;;25.70;99.90;;;;;;5033523;28;20187;-87
2021/07/17 11:15:20;;;;;;;1.67;1.40;;;26.00;99.90;;;;;;5049640;28;20186;-90
2021/07/17 11:17:54;;;;;;;1.47;0.90;;;25.50;99.90;;;;;;5022958;28;20197;-88
2021/07/17 11:20:35;;;;;;;4.43;2.20;;;26.00;99.90;;;;;;5033629;28;20613;-90
2021/07/17 11:23:14;;;;;;;1.07;0.97;;;26.50;99.90;;;;;;5033459;28;20220;-89
2021/07/17 11:25:58;;;;;;;3.17;1.20;;;26.80;99.90;;;;;;5034014;28;20220;-90
2021/07/17 11:28:57;;;;;;;0.90;0.90;;;27.00;99.90;;;;;;5029172;28;20752;-88
2021/07/17 11:31:26;;;;;;;1.00;1.00;;;27.20;99.90;;;;;;5018112;28;20189;-89
2021/07/17 11:34:20;;;;;;;1.33;1.23;;;27.40;99.90;;;;;;5051358;28;20189;-89
2021/07/17 11:36:48;;;;;;;2.20;1.10;;;27.80;99.90;;;;;;5032004;28;20697;-89
2021/07/17 11:39:15;;;;;;;2.23;1.63;;;27.40;99.90;;;;;;5030533;28;20574;-88
2021/07/17 11:41:41;;;;;;;0.83;0.83;;;28.00;99.90;;;;;;5042295;28;20192;-88
2021/07/17 11:44:07;;;;;;;1.17;1.07;;;27.60;99.90;;;;;;5034110;28;20296;-88
2021/07/17 11:46:33;;;;;;;5.10;2.13;;;27.90;99.90;;;;;;5033358;28;20255;-90
2021/07/17 11:49:08;;;;;;;2.37;2.20;;;27.30;99.90;;;;;;5034941;28;20186;-89
2021/07/17 11:51:47;;;;;;;1.10;1.10;;;26.90;99.90;;;;;;5036710;28;20214;-88
2021/07/17 11:54:12;;;;;;;1.10;0.97;;;26.30;99.90;;;;;;5036284;28;20575;-86
2021/07/17 11:56:38;;;;;;;1.83;1.10;;;26.60;99.90;;;;;;5028214;28;20217;-88
2021/07/17 11:59:15;;;;;;;3.40;1.30;;;27.10;99.90;;;;;;5035468;28;20662;-83
2021/07/17 12:02:01;;;;;;;3.33;1.13;;;27.80;99.90;;;;;;5038439;28;20547;-85
2021/07/17 12:04:38;;;;;;;1.33;1.23;;;27.60;99.90;;;;;;5056082;28;20661;-86
2021/07/17 12:07:15;;;;;;;1.33;1.27;;;28.20;99.90;;;;;;5037905;28;20842;-86
2021/07/17 12:09:44;;;;;;;2.63;1.30;;;27.60;99.90;;;;;;5038871;28;20215;-86
2021/07/17 12:12:22;;;;;;;2.20;2.00;;;27.90;99.90;;;;;;5038146;28;20262;-85
2021/07/17 12:15:01;;;;;;;2.87;1.30;;;28.00;99.90;;;;;;5038568;28;20618;-86
2021/07/17 12:17:28;;;;;;;1.47;1.00;;;28.00;99.90;;;;;;5038238;28;20197;-85
2021/07/17 12:20:12;;;;;;;2.33;1.57;;;28.30;99.90;;;;;;5037824;28;20214;-86
2021/07/17 12:22:45;;;;;;;1.97;1.87;;;27.70;99.90;;;;;;5025534;28;20214;-85
2021/07/17 12:25:16;;;;;;;4.37;1.73;;;28.20;99.90;;;;;;5033821;28;20183;-86
2021/07/17 12:27:55;;;;;;;1.77;1.57;;;27.80;99.90;;;;;;5034656;28;20193;-86
2021/07/17 12:30:23;;;;;;;2.80;1.73;;;27.50;99.90;;;;;;5037558;28;20618;-86
2021/07/17 12:32:49;;;;;;;1.20;1.10;;;27.50;99.90;;;;;;5037097;28;20280;-86
2021/07/17 12:35:33;;;;;;;2.47;1.80;;;27.80;99.90;;;;;;5037148;28;20269;-86
2021/07/17 12:38:12;;;;;;;2.33;1.23;;;28.40;99.90;;;;;;5036836;28;20205;-85
2021/07/17 12:40:47;;;;;;;1.97;1.80;;;28.00;99.90;;;;;;5037011;28;20181;-86
2021/07/17 12:43:20;;;;;;;2.73;1.63;;;28.40;99.90;;;;;;5036739;28;20212;-85
2021/07/17 12:45:54;;;;;;;2.70;1.27;;;28.30;99.90;;;;;;5053939;28;20589;-86
2021/07/17 12:48:20;;;;;;;1.67;1.37;;;27.80;99.90;;;;;;5036541;28;20181;-85
2021/07/17 12:50:45;;;;;;;1.83;1.73;;;27.50;99.90;;;;;;5054961;28;20185;-86
2021/07/17 12:53:13;;;;;;;2.47;1.83;;;27.40;99.90;;;;;;5052632;28;20568;-85
2021/07/17 12:55:45;;;;;;;1.67;1.37;;;27.30;99.90;;;;;;5054449;28;20220;-86
2021/07/17 12:58:13;;;;;;;2.00;1.37;;;27.50;99.90;;;;;;5036378;28;20205;-86